Screven, GA (31560)

18:04 EDT le 28 mai 2015 (GMT -0400)
Chancey Farms | | Change Station
CLOSE
Current Station
Stations météorologiques personnelles
Location: Patterson, GA
Altitude: 131 ft
Stations météo à proximité

Alt. 131 ft 31.45 °N, 82.12 °W | Updated 10 seconds ago

Ciel dégagé
Ciel dégagé
83.5 ° F
Paraît 83 ° F
N
6.5
Vent Variable Vent de ESE
Gusts 10.0 mph

Aujourd'hui
Haut(e) -- | Bas -- ° F
--% Risque de précip.
Hier
Haut(e) -- | Bas -- ° F
Precip. -- pouce
6:25 AM 8:25 PM
Lune gibbeuse croissante, 79% visible
Pression 30.14 pouce
Visibilité 10.0 Miles terrestres
Nuages Nuages épars 5000 ft
indice de chaleur 83 ° F
Point de rosée 58 ° F
Humidité 42%
Précipitations 0.00 pouce
Profondeur de la couche neigeuse Non disponible.
UV 3 sur 12
Pollen 5.00 sur 12
Qualité de l'air Non disponible.
Flu Activity Sporadic
METAR KJES 282155Z AUTO 13007KT 10SM SCT050 31/18 A3014 RMK AO2

More Conditions Fewer Conditions

Pression 30.14 pouce
Visibilité 10.0 Miles terrestres
Nuages Nuages épars 5000 ft
indice de chaleur 83 ° F
Point de rosée 58 ° F
Humidité 42%
Précipitations 0.00 pouce
Profondeur de la couche neigeuse Non disponible.
UV 3 sur 12
Pollen 5.00 sur 12
Qualité de l'air Non disponible.
Flu Activity Sporadic
METAR KJES 282155Z AUTO 13007KT 10SM SCT050 31/18 A3014 RMK AO2

More Conditions Fewer Conditions

10-Day Weather Forecast

Almanac

Astronomie

May. 28, 2015 Lever Coucher
Temps réel
Crépuscule civil
Crépuscule nautique
Crépuscule astronomique
Lune
Durée de lumière visible
Longueur du jour
Tomorrow will be .
, % of the Moon is Illuminated

Extrêmes aujourd'hui

State Highs State Lows

Community

WunderPhotos

Upload Photos

1,825,077 Photos téléchargées !

WunderBlogs® & News

Nearby

Qualité de l'air

  Qualité de l'air Indice de la qualité de l'air Polluant
Not available.

Épaisseur de neige

Station Depth Altitude

Activité sismique

Ville Distance Mag. Time & Date
Minimum magnitude displayed is 2.5.

Températures des eaux côtières

Lieu Température

Stations

Stations météo à proximité

Emplacement de la station Température Refroidissement éolien Point de rosée Humidité Vent Precip. Alt. Mise à jour Type